Time;durP1;ratioP1;P1;durP2;ratioP2;P2;SDS_P1;SDS_P2;PMS_P1;PMS_P2;Temp;Humidity;BMP_temperature;BMP_pressure;BME280_temperature;BME280_humidity;BME280_pressure;Samples;Min_cycle;Max_cycle;Signal;HPM_P1;HPM_P2
2021/11/28 00:04:08;;;;;;;7.13;3.57;;;16.80;51.40;;;;;;10384760;28;20204;-67
2021/11/28 00:09:42;;;;;;;4.90;3.40;;;16.80;51.30;;;;;;10416558;28;20198;-67
2021/11/28 00:15:07;;;;;;;6.17;3.67;;;16.80;51.30;;;;;;10407414;28;20209;-66
2021/11/28 00:20:29;;;;;;;6.67;3.67;;;16.80;51.40;;;;;;10400269;28;20225;-67
2021/11/28 00:25:52;;;;;;;6.70;4.17;;;16.80;51.50;;;;;;10404325;28;20229;-67
2021/11/28 00:31:16;;;;;;;6.60;3.67;;;16.80;51.50;;;;;;10387137;28;20499;-66
2021/11/28 00:36:38;;;;;;;6.23;3.57;;;16.80;52.10;;;;;;10371519;28;20233;-67
2021/11/28 00:42:00;;;;;;;6.87;4.10;;;16.80;51.60;;;;;;10388404;28;20229;-66
2021/11/28 00:47:24;;;;;;;7.63;3.90;;;16.80;51.60;;;;;;10416345;28;20300;-66
2021/11/28 00:52:46;;;;;;;6.33;3.87;;;16.80;51.50;;;;;;10400050;28;20193;-67
2021/11/28 00:58:09;;;;;;;7.23;4.20;;;16.70;51.40;;;;;;10395012;28;20218;-67
2021/11/28 01:03:33;;;;;;;7.63;4.57;;;16.80;51.50;;;;;;10398584;28;20684;-66
2021/11/28 01:08:55;;;;;;;8.83;4.90;;;16.80;51.60;;;;;;10398748;28;20236;-66
2021/11/28 01:14:18;;;;;;;5.43;4.17;;;16.80;51.50;;;;;;10409243;28;20198;-67
2021/11/28 01:19:41;;;;;;;6.77;4.53;;;16.80;51.40;;;;;;10409943;28;20579;-66
2021/11/28 01:25:04;;;;;;;8.90;4.50;;;16.80;51.50;;;;;;10412120;22;20248;-62
2021/11/28 01:30:26;;;;;;;7.53;4.37;;;16.70;51.40;;;;;;10436503;28;20747;-63
2021/11/28 01:35:50;;;;;;;6.87;4.83;;;16.80;51.50;;;;;;10449805;28;20701;-63
2021/11/28 01:41:12;;;;;;;5.40;4.00;;;16.80;51.50;;;;;;10414334;28;20687;-63
2021/11/28 01:46:34;;;;;;;7.20;4.90;;;16.80;51.40;;;;;;10434977;28;20221;-63
2021/11/28 01:51:58;;;;;;;4.80;4.30;;;16.70;51.40;;;;;;10435381;28;20197;-63
2021/11/28 01:57:20;;;;;;;5.73;4.43;;;16.70;51.40;;;;;;10438065;28;20217;-63
2021/11/28 02:02:43;;;;;;;7.47;5.23;;;16.70;51.40;;;;;;10430431;28;20221;-63
2021/11/28 02:08:07;;;;;;;5.63;4.67;;;16.70;51.30;;;;;;10438857;28;20217;-63
2021/11/28 02:13:30;;;;;;;7.50;4.43;;;16.70;51.40;;;;;;10448350;28;20575;-64
2021/11/28 02:18:52;;;;;;;6.23;4.70;;;16.70;51.40;;;;;;10438600;28;20726;-64
2021/11/28 02:24:16;;;;;;;7.20;4.93;;;16.70;51.40;;;;;;10438773;28;20205;-62
2021/11/28 02:29:39;;;;;;;7.80;5.20;;;16.70;51.40;;;;;;10442230;28;20200;-63
2021/11/28 02:35:01;;;;;;;6.13;4.67;;;16.70;51.40;;;;;;10442341;28;20217;-63
2021/11/28 02:40:26;;;;;;;6.03;4.20;;;16.70;51.40;;;;;;10440984;28;20209;-63
2021/11/28 02:45:48;;;;;;;6.87;4.77;;;16.70;51.40;;;;;;10452696;28;20511;-64
2021/11/28 02:51:11;;;;;;;5.00;3.93;;;16.70;51.40;;;;;;10427067;28;20197;-63
2021/11/28 02:56:35;;;;;;;5.83;4.43;;;16.70;51.30;;;;;;10408890;28;21502;-64
2021/11/28 03:01:57;;;;;;;4.40;3.60;;;16.70;51.30;;;;;;10430584;28;20225;-63
2021/11/28 03:07:20;;;;;;;5.80;4.13;;;16.60;51.20;;;;;;10421539;28;20289;-63
2021/11/28 03:12:44;;;;;;;5.63;4.37;;;16.60;51.30;;;;;;10432696;28;20340;-63
2021/11/28 03:18:12;;;;;;;4.83;3.40;;;16.70;51.30;;;;;;10430209;28;20221;-64
2021/11/28 03:23:36;;;;;;;4.03;3.63;;;16.70;51.20;;;;;;10426165;28;20796;-62
2021/11/28 03:29:01;;;;;;;5.23;3.63;;;16.70;51.20;;;;;;10467609;28;20223;-64
2021/11/28 03:34:24;;;;;;;4.63;3.77;;;16.60;51.30;;;;;;10442845;28;20197;-63
2021/11/28 03:39:46;;;;;;;6.60;4.43;;;16.70;51.20;;;;;;10438473;28;20219;-63
2021/11/28 03:45:13;;;;;;;6.07;4.43;;;16.70;51.10;;;;;;10447336;28;20221;-63
2021/11/28 03:50:35;;;;;;;5.40;4.43;;;16.70;51.20;;;;;;10437772;28;20186;-63
2021/11/28 03:56:01;;;;;;;8.00;5.70;;;16.60;51.20;;;;;;10430211;28;20228;-64
2021/11/28 04:01:26;;;;;;;7.97;4.93;;;16.60;51.20;;;;;;10446402;28;20563;-63
2021/11/28 04:06:50;;;;;;;7.40;5.53;;;16.70;51.20;;;;;;10417520;28;20220;-63
2021/11/28 04:12:12;;;;;;;7.30;5.50;;;16.70;51.00;;;;;;10448274;28;20421;-63
2021/11/28 04:17:36;;;;;;;8.33;5.93;;;16.70;51.10;;;;;;10449141;28;20221;-64
2021/11/28 04:22:58;;;;;;;8.90;6.63;;;16.70;51.20;;;;;;10452782;28;20217;-62
2021/11/28 04:28:20;;;;;;;8.67;6.07;;;16.60;51.10;;;;;;10440599;28;20209;-61
2021/11/28 04:33:43;;;;;;;7.33;5.70;;;16.60;51.10;;;;;;10436585;28;20197;-63
2021/11/28 04:39:06;;;;;;;8.70;5.70;;;16.60;51.20;;;;;;10453995;28;20228;-63
2021/11/28 04:44:28;;;;;;;8.63;6.07;;;16.60;51.30;;;;;;10430956;28;20194;-63
2021/11/28 04:49:52;;;;;;;7.80;5.63;;;16.60;51.30;;;;;;10452648;28;20193;-63
2021/11/28 04:55:15;;;;;;;8.13;5.97;;;16.60;51.20;;;;;;10431207;28;20221;-64
2021/11/28 05:00:37;;;;;;;7.67;5.17;;;16.60;51.20;;;;;;10439344;28;20217;-63
2021/11/28 05:06:01;;;;;;;7.23;5.97;;;16.60;51.20;;;;;;10448829;28;20213;-63
2021/11/28 05:11:23;;;;;;;6.37;5.23;;;16.60;51.40;;;;;;10443993;28;20194;-64
2021/11/28 05:16:45;;;;;;;6.30;5.30;;;16.60;51.40;;;;;;10435865;28;20217;-63
2021/11/28 05:22:09;;;;;;;8.30;5.77;;;16.60;51.40;;;;;;10450987;28;20212;-63
2021/11/28 05:27:31;;;;;;;7.20;5.83;;;16.60;51.40;;;;;;10446032;28;20225;-63
2021/11/28 05:32:53;;;;;;;6.90;5.20;;;16.60;51.20;;;;;;10445715;28;20686;-63
2021/11/28 05:38:16;;;;;;;7.13;5.50;;;16.60;51.60;;;;;;10448656;28;20213;-63
2021/11/28 05:43:41;;;;;;;7.87;5.30;;;16.60;50.90;;;;;;10443919;28;20229;-63
2021/11/28 05:49:04;;;;;;;6.80;4.90;;;16.70;50.70;;;;;;10441664;28;20276;-62
2021/11/28 05:54:27;;;;;;;5.20;4.23;;;16.70;50.80;;;;;;10446451;28;20666;-63
2021/11/28 05:59:50;;;;;;;5.17;4.03;;;16.70;50.70;;;;;;10448347;28;20225;-63
2021/11/28 06:05:12;;;;;;;5.43;3.97;;;16.70;50.80;;;;;;10438100;28;20217;-62
2021/11/28 06:10:36;;;;;;;4.63;4.10;;;16.70;50.90;;;;;;10448327;28;20212;-62
2021/11/28 06:15:58;;;;;;;4.13;3.70;;;16.60;50.80;;;;;;10449916;28;20220;-62
2021/11/28 06:21:20;;;;;;;4.43;3.87;;;16.60;50.80;;;;;;10469026;28;20754;-63
2021/11/28 06:26:44;;;;;;;3.93;3.53;;;16.70;50.70;;;;;;10442818;28;20224;-63
2021/11/28 06:32:07;;;;;;;4.30;3.60;;;16.60;50.60;;;;;;10456449;28;20535;-63
2021/11/28 06:37:29;;;;;;;4.73;4.00;;;16.70;50.60;;;;;;10447246;28;20218;-62
2021/11/28 06:42:53;;;;;;;4.70;3.63;;;16.60;50.60;;;;;;10431355;28;20699;-62
2021/11/28 06:48:15;;;;;;;4.00;3.43;;;16.70;50.60;;;;;;10436841;28;20223;-63
2021/11/28 06:53:37;;;;;;;3.70;3.30;;;16.60;50.50;;;;;;10432546;28;20197;-62
2021/11/28 06:59:00;;;;;;;4.47;3.37;;;16.70;50.60;;;;;;10444230;28;20671;-62
2021/11/28 07:04:23;;;;;;;8.17;4.97;;;16.60;50.60;;;;;;10446421;28;20202;-63
2021/11/28 07:09:45;;;;;;;6.57;4.27;;;16.70;50.50;;;;;;10430956;28;20265;-63
2021/11/28 07:15:09;;;;;;;6.37;4.53;;;16.60;50.50;;;;;;10432051;28;20220;-63
2021/11/28 07:20:32;;;;;;;9.10;5.30;;;16.60;50.60;;;;;;10431774;28;20222;-63
2021/11/28 07:25:54;;;;;;;10.97;6.90;;;16.60;50.60;;;;;;10451232;23;20225;-67
2021/11/28 07:31:18;;;;;;;6.50;4.73;;;16.70;50.60;;;;;;10462703;28;20208;-68
2021/11/28 07:36:41;;;;;;;6.90;5.17;;;16.60;50.50;;;;;;10456524;28;20225;-67
2021/11/28 07:42:04;;;;;;;6.43;5.07;;;16.70;50.60;;;;;;10440481;28;20220;-67
2021/11/28 07:47:28;;;;;;;6.70;4.97;;;16.70;50.50;;;;;;10442359;28;20217;-68
2021/11/28 07:52:50;;;;;;;7.67;5.40;;;16.70;50.40;;;;;;10427009;28;20204;-68
2021/11/28 07:58:12;;;;;;;8.67;5.60;;;16.70;50.40;;;;;;10432267;28;20206;-67
2021/11/28 08:03:35;;;;;;;8.20;5.57;;;16.70;50.40;;;;;;10437527;28;20654;-67
2021/11/28 08:08:58;;;;;;;9.13;6.40;;;16.60;50.40;;;;;;10446255;28;20201;-64
2021/11/28 08:14:20;;;;;;;8.47;6.23;;;16.60;50.40;;;;;;10442910;28;20680;-64
2021/11/28 08:19:44;;;;;;;8.90;6.33;;;16.60;50.60;;;;;;10433327;28;20868;-64
2021/11/28 08:25:09;;;;;;;11.07;6.37;;;16.60;50.70;;;;;;10432686;28;20225;-67
2021/11/28 08:30:31;;;;;;;9.67;7.13;;;16.60;50.80;;;;;;10435714;28;20204;-67
2021/11/28 08:35:54;;;;;;;8.63;6.50;;;16.60;50.80;;;;;;10437366;28;20221;-67
2021/11/28 08:41:19;;;;;;;10.37;7.73;;;16.60;50.70;;;;;;10429297;28;20224;-68
2021/11/28 08:46:41;;;;;;;8.53;6.43;;;16.70;50.70;;;;;;10429791;28;20575;-67
2021/11/28 08:52:05;;;;;;;8.03;6.47;;;16.80;50.30;;;;;;10440906;28;20664;-68
2021/11/28 08:57:27;;;;;;;9.23;6.40;;;16.80;50.20;;;;;;10440493;28;20220;-67
2021/11/28 09:02:50;;;;;;;8.93;6.90;;;16.80;50.20;;;;;;10432573;28;20605;-65
2021/11/28 09:08:14;;;;;;;6.40;5.70;;;16.80;50.20;;;;;;10455982;28;20620;-65
2021/11/28 09:13:37;;;;;;;9.67;8.00;;;16.80;50.30;;;;;;10451101;28;20432;-64
2021/11/28 09:19:03;;;;;;;8.70;7.10;;;17.50;48.70;;;;;;10452121;28;20197;-66
2021/11/28 09:24:40;;;;;;;9.80;7.80;;;17.00;49.70;;;;;;10453197;28;20228;-64
2021/11/28 09:30:02;;;;;;;8.77;7.87;;;16.80;50.40;;;;;;10448855;28;20627;-64
2021/11/28 09:35:25;;;;;;;10.93;8.50;;;16.80;49.70;;;;;;10448402;28;20342;-64
2021/11/28 09:40:50;;;;;;;8.63;7.53;;;16.80;49.40;;;;;;10439073;28;20236;-64
2021/11/28 09:46:13;;;;;;;8.33;7.40;;;16.80;50.00;;;;;;10432591;28;20226;-64
2021/11/28 09:51:36;;;;;;;9.17;7.50;;;16.90;50.60;;;;;;10431150;28;20193;-66
2021/11/28 09:56:59;;;;;;;8.57;7.75;;;16.90;50.70;;;;;;10432351;28;20433;-68
2021/11/28 10:02:23;;;;;;;8.07;6.80;;;16.90;50.60;;;;;;10443099;28;20212;-69
2021/11/28 10:07:47;;;;;;;6.60;5.90;;;16.90;50.70;;;;;;10442494;28;20344;-69
2021/11/28 10:13:13;;;;;;;7.47;6.77;;;16.90;50.80;;;;;;10422816;28;20193;-65
2021/11/28 10:18:36;;;;;;;8.33;7.17;;;16.90;50.70;;;;;;10425657;28;20244;-68
2021/11/28 10:24:07;;;;;;;7.23;6.40;;;16.90;50.60;;;;;;10430276;28;20225;-69
2021/11/28 10:29:32;;;;;;;7.50;6.40;;;16.90;50.80;;;;;;10417971;28;20229;-68
2021/11/28 10:34:54;;;;;;;7.57;6.60;;;16.90;50.80;;;;;;10425622;28;20574;-66
2021/11/28 10:40:22;;;;;;;8.77;7.77;;;16.90;50.40;;;;;;10414578;28;20202;-67
2021/11/28 10:45:49;;;;;;;10.67;8.57;;;17.10;48.90;;;;;;10423288;28;20222;-66
2021/11/28 10:51:23;;;;;;;10.53;8.73;;;17.20;48.30;;;;;;10411598;28;20576;-64
2021/11/28 10:56:46;;;;;;;8.90;7.50;;;17.20;47.90;;;;;;10417875;28;20217;-64
2021/11/28 11:02:20;;;;;;;8.53;7.13;;;17.20;48.10;;;;;;10440413;28;20223;-64
2021/11/28 11:07:48;;;;;;;6.90;5.97;;;17.20;48.20;;;;;;10419527;28;20220;-64
2021/11/28 11:13:14;;;;;;;7.60;5.90;;;17.10;48.70;;;;;;10448073;28;20212;-64
2021/11/28 11:18:37;;;;;;;8.13;6.23;;;17.00;49.10;;;;;;10424323;28;20225;-63
2021/11/28 11:23:59;;;;;;;13.67;9.63;;;17.00;49.40;;;;;;10446303;28;20218;-63
2021/11/28 11:29:22;;;;;;;11.30;8.37;;;16.90;49.50;;;;;;10430823;28;20196;-64
2021/11/28 11:34:55;;;;;;;10.73;7.80;;;16.80;49.70;;;;;;10418408;28;20229;-66
2021/11/28 11:40:19;;;;;;;10.70;7.77;;;16.80;49.90;;;;;;10442619;28;20196;-65
2021/11/28 11:45:48;;;;;;;11.00;7.50;;;16.80;50.10;;;;;;10448033;28;20240;-67
2021/11/28 11:51:11;;;;;;;11.13;7.20;;;16.70;50.60;;;;;;10451755;28;20194;-66
2021/11/28 11:56:34;;;;;;;11.17;7.37;;;16.70;50.80;;;;;;10439264;28;20224;-63
2021/11/28 12:02:01;;;;;;;11.23;7.20;;;16.70;50.80;;;;;;10440320;28;20700;-64
2021/11/28 12:07:48;;;;;;;10.90;6.70;;;16.80;50.80;;;;;;10446562;28;20213;-64
2021/11/28 12:13:14;;;;;;;7.10;5.53;;;16.80;50.50;;;;;;10445030;28;20275;-66
2021/11/28 12:18:42;;;;;;;7.93;5.30;;;16.90;51.70;;;;;;10457105;28;20280;-66
2021/11/28 12:24:09;;;;;;;5.90;5.30;;;17.00;50.70;;;;;;10434501;28;20232;-66
2021/11/28 12:29:45;;;;;;;9.73;6.87;;;17.20;51.70;;;;;;10449742;28;20676;-67
2021/11/28 12:35:08;;;;;;;9.83;7.87;;;17.20;50.60;;;;;;10448698;28;20248;-65
2021/11/28 12:40:36;;;;;;;8.17;7.23;;;17.30;49.50;;;;;;10437536;28;20204;-64
2021/11/28 12:45:58;;;;;;;7.70;6.13;;;17.30;49.30;;;;;;10450940;28;20213;-64
2021/11/28 12:51:26;;;;;;;8.90;7.07;;;17.30;49.30;;;;;;10445469;28;20197;-64
2021/11/28 12:57:25;;;;;;;8.70;6.30;;;17.30;49.10;;;;;;10448426;28;20224;-64
2021/11/28 13:02:49;;;;;;;7.47;6.37;;;17.30;49.50;;;;;;10455033;28;20224;-65
2021/11/28 13:08:31;;;;;;;7.78;6.22;;;17.20;50.10;;;;;;10433858;28;20428;-65
2021/11/28 13:14:00;;;;;;;6.60;5.90;;;17.20;50.50;;;;;;10455366;28;20240;-64
2021/11/28 13:19:22;;;;;;;9.63;6.37;;;17.10;50.50;;;;;;10451362;28;20665;-64
2021/11/28 13:24:45;;;;;;;8.03;6.50;;;17.10;50.70;;;;;;10472043;22;20225;-67
2021/11/28 13:30:13;;;;;;;6.23;5.37;;;17.00;50.90;;;;;;10396437;28;20220;-66
2021/11/28 13:35:37;;;;;;;9.37;6.70;;;17.00;51.00;;;;;;10400507;28;20732;-66
2021/11/28 13:41:14;;;;;;;9.97;7.40;;;17.00;51.20;;;;;;10447723;28;20628;-67
2021/11/28 13:46:40;;;;;;;13.53;8.40;;;17.00;51.70;;;;;;10441671;28;20217;-68
2021/11/28 13:52:04;;;;;;;14.70;9.17;;;16.90;52.20;;;;;;10444826;28;20197;-68
2021/11/28 13:57:26;;;;;;;12.13;9.13;;;16.90;52.10;;;;;;10445502;28;20217;-68
2021/11/28 14:02:50;;;;;;;24.23;14.53;;;16.90;51.70;;;;;;10453770;28;20217;-67
2021/11/28 14:08:12;;;;;;;26.00;15.73;;;16.90;51.30;;;;;;10451864;28;20224;-67
2021/11/28 14:13:34;;;;;;;18.27;11.27;;;17.00;51.00;;;;;;10454535;28;20220;-68
2021/11/28 14:18:59;;;;;;;19.07;12.03;;;17.00;50.80;;;;;;10452936;28;20257;-67
2021/11/28 14:24:29;;;;;;;17.20;11.43;;;17.00;50.80;;;;;;10421959;28;20684;-68
2021/11/28 14:30:02;;;;;;;14.43;10.33;;;17.00;50.90;;;;;;10412552;28;20202;-68
2021/11/28 14:35:25;;;;;;;13.07;9.77;;;16.90;51.00;;;;;;10412418;28;20217;-67
2021/11/28 14:40:54;;;;;;;11.00;8.60;;;16.90;51.10;;;;;;10411517;28;20193;-67
2021/11/28 14:46:19;;;;;;;12.70;9.77;;;16.90;51.10;;;;;;10431333;28;20597;-67
2021/11/28 14:51:45;;;;;;;13.10;9.03;;;16.90;51.30;;;;;;10411288;28;20569;-66
2021/11/28 14:57:12;;;;;;;12.20;9.83;;;16.90;51.60;;;;;;10437337;28;20229;-67
2021/11/28 15:02:38;;;;;;;11.23;8.67;;;16.90;51.60;;;;;;10438110;28;20216;-67
2021/11/28 15:08:15;;;;;;;11.47;8.73;;;16.90;51.50;;;;;;10444496;28;20225;-67
2021/11/28 15:13:38;;;;;;;10.47;8.73;;;16.80;51.50;;;;;;10450866;28;20189;-67
2021/11/28 15:19:00;;;;;;;15.43;10.43;;;16.80;51.30;;;;;;10410437;28;20782;-67
2021/11/28 15:24:24;;;;;;;12.17;9.50;;;16.90;51.20;;;;;;10410885;28;20217;-67
2021/11/28 15:29:46;;;;;;;13.00;9.80;;;16.90;51.00;;;;;;10409744;28;20904;-69
2021/11/28 15:35:09;;;;;;;12.80;9.70;;;17.00;50.90;;;;;;10439690;28;20209;-68
2021/11/28 15:40:37;;;;;;;13.47;9.57;;;16.90;51.00;;;;;;10398618;28;20358;-68
2021/11/28 15:46:02;;;;;;;12.93;10.37;;;16.90;51.20;;;;;;10403493;28;20218;-69
2021/11/28 15:51:24;;;;;;;13.67;8.90;;;17.00;51.30;;;;;;10406704;28;20251;-69
2021/11/28 15:56:47;;;;;;;13.47;9.13;;;17.00;51.90;;;;;;10400439;28;20721;-69
2021/11/28 16:02:10;;;;;;;15.00;10.60;;;16.90;51.40;;;;;;10398413;28;20219;-68
2021/11/28 16:07:32;;;;;;;13.03;9.13;;;16.90;51.70;;;;;;10387946;28;20222;-66
2021/11/28 16:12:56;;;;;;;13.30;8.73;;;16.80;51.90;;;;;;10400902;28;20202;-68
2021/11/28 16:18:18;;;;;;;15.57;8.80;;;16.80;52.20;;;;;;10406561;28;20225;-67
2021/11/28 16:23:40;;;;;;;16.52;11.15;;;16.80;52.60;;;;;;10398821;28;20817;-66
2021/11/28 16:29:04;;;;;;;15.43;11.30;;;17.40;51.20;;;;;;10374474;28;20437;-69
2021/11/28 16:34:26;;;;;;;14.00;9.37;;;17.50;50.90;;;;;;10389667;28;20207;-70
2021/11/28 16:39:48;;;;;;;12.40;9.37;;;17.10;51.60;;;;;;10376457;28;20209;-70
2021/11/28 16:45:12;;;;;;;14.87;8.60;;;16.90;51.90;;;;;;10373110;28;20241;-71
2021/11/28 16:50:34;;;;;;;15.40;9.33;;;16.80;51.80;;;;;;10376194;28;20191;-70
2021/11/28 16:55:56;;;;;;;15.60;9.57;;;16.80;51.60;;;;;;10413319;28;20224;-70
2021/11/28 17:01:20;;;;;;;16.10;10.17;;;16.80;51.20;;;;;;10412026;28;20198;-70
2021/11/28 17:06:42;;;;;;;15.73;10.00;;;16.80;50.90;;;;;;10409675;28;20253;-71
2021/11/28 17:12:04;;;;;;;12.50;8.27;;;16.80;50.90;;;;;;10410207;28;20193;-70
2021/11/28 17:17:28;;;;;;;23.83;10.73;;;16.80;51.10;;;;;;10409599;28;20632;-71
2021/11/28 17:22:50;;;;;;;20.50;10.00;;;16.80;51.20;;;;;;10409678;28;20706;-70
2021/11/28 17:28:18;;;;;;;25.23;11.67;;;16.80;51.20;;;;;;10409509;28;20230;-70
2021/11/28 17:33:41;;;;;;;18.83;10.33;;;16.80;51.30;;;;;;10409011;28;20198;-70
2021/11/28 17:39:04;;;;;;;19.47;10.13;;;16.70;51.30;;;;;;10404393;28;20240;-70
2021/11/28 17:44:26;;;;;;;17.13;9.93;;;16.70;51.30;;;;;;10409517;28;20716;-71
2021/11/28 17:49:50;;;;;;;15.13;9.30;;;16.70;51.40;;;;;;10404103;28;20216;-70
2021/11/28 17:55:15;;;;;;;14.07;9.60;;;16.70;51.40;;;;;;10412570;28;20699;-70
2021/11/28 18:00:38;;;;;;;11.53;8.37;;;16.70;51.40;;;;;;10407789;28;20198;-71
2021/11/28 18:06:02;;;;;;;13.23;8.60;;;16.60;51.40;;;;;;10413415;28;20225;-69
2021/11/28 18:11:25;;;;;;;10.90;7.27;;;16.60;51.10;;;;;;10412120;28;20205;-70
2021/11/28 18:16:52;;;;;;;10.83;8.13;;;16.70;50.80;;;;;;10412459;28;20695;-69
2021/11/28 18:22:15;;;;;;;9.27;7.27;;;16.80;50.70;;;;;;10390323;28;20214;-70
2021/11/28 18:27:39;;;;;;;9.70;6.77;;;16.90;50.50;;;;;;10371196;28;20244;-70
2021/11/28 18:33:02;;;;;;;9.00;7.17;;;16.90;50.30;;;;;;10400446;28;20190;-70
2021/11/28 18:38:25;;;;;;;9.83;7.10;;;17.00;50.10;;;;;;10372606;28;20218;-71
2021/11/28 18:43:48;;;;;;;10.17;7.13;;;17.00;50.10;;;;;;10411677;28;20589;-70
2021/11/28 18:49:10;;;;;;;8.53;6.53;;;16.90;50.20;;;;;;10450421;28;20317;-71
2021/11/28 18:54:34;;;;;;;8.53;6.03;;;16.90;50.50;;;;;;10452682;28;20192;-70
2021/11/28 18:59:56;;;;;;;8.30;6.37;;;16.80;50.70;;;;;;10440221;28;20197;-70
2021/11/28 19:05:18;;;;;;;8.50;6.57;;;16.80;50.90;;;;;;10413013;28;20232;-71
2021/11/28 19:10:41;;;;;;;6.80;5.97;;;16.70;51.10;;;;;;10450149;28;20583;-69
2021/11/28 19:16:04;;;;;;;7.70;6.20;;;16.70;51.30;;;;;;10424763;28;20206;-70
2021/11/28 19:21:26;;;;;;;8.80;6.37;;;16.70;51.30;;;;;;10410039;28;20228;-70
2021/11/28 19:26:50;;;;;;;8.40;6.30;;;16.70;51.40;;;;;;10448563;23;20727;-65
2021/11/28 19:32:12;;;;;;;7.30;6.13;;;16.70;51.40;;;;;;10460807;28;20207;-65
2021/11/28 19:37:35;;;;;;;10.07;6.93;;;16.70;51.50;;;;;;10490784;28;20585;-64
2021/11/28 19:42:59;;;;;;;6.00;5.43;;;16.70;51.40;;;;;;10491098;28;20221;-65
2021/11/28 19:48:22;;;;;;;7.47;6.10;;;16.70;51.30;;;;;;10434971;28;20686;-65
2021/11/28 19:53:44;;;;;;;6.77;5.73;;;16.70;51.40;;;;;;10408146;28;20716;-65
2021/11/28 19:59:08;;;;;;;7.17;5.90;;;16.70;51.40;;;;;;10435068;28;20224;-66
2021/11/28 20:04:30;;;;;;;6.43;5.70;;;16.70;51.30;;;;;;10418069;28;20232;-66
2021/11/28 20:09:53;;;;;;;6.60;5.87;;;16.70;51.10;;;;;;10418070;28;20201;-66
2021/11/28 20:15:16;;;;;;;6.47;5.80;;;16.80;50.90;;;;;;10450842;28;20213;-66
2021/11/28 20:20:39;;;;;;;5.90;5.30;;;16.90;50.80;;;;;;10418870;28;20207;-66
2021/11/28 20:26:01;;;;;;;5.80;5.20;;;16.90;50.60;;;;;;10455964;28;20228;-66
2021/11/28 20:31:25;;;;;;;6.63;5.00;;;17.00;50.50;;;;;;10459297;28;20216;-66
2021/11/28 20:36:47;;;;;;;7.00;5.17;;;17.00;50.30;;;;;;10479188;28;20239;-65
2021/11/28 20:42:09;;;;;;;7.37;5.57;;;17.00;50.20;;;;;;10455621;28;20216;-65
2021/11/28 20:47:33;;;;;;;6.83;5.43;;;17.10;50.20;;;;;;10445613;28;20740;-65
2021/11/28 20:52:55;;;;;;;6.17;5.10;;;17.00;50.40;;;;;;10454769;28;20197;-65
2021/11/28 20:58:18;;;;;;;5.87;5.00;;;16.90;50.50;;;;;;10418665;28;20426;-65
2021/11/28 21:03:42;;;;;;;6.20;4.77;;;16.90;50.70;;;;;;10426711;28;20220;-65
2021/11/28 21:09:08;;;;;;;5.97;4.63;;;16.90;50.80;;;;;;10413762;28;20217;-65
2021/11/28 21:14:31;;;;;;;5.00;4.50;;;16.90;50.80;;;;;;10412862;28;20193;-65
2021/11/28 21:19:54;;;;;;;14.23;9.20;;;16.90;50.90;;;;;;10413386;28;20198;-66
2021/11/28 21:25:16;;;;;;;9.30;7.17;;;16.90;50.90;;;;;;10449237;28;20220;-66
2021/11/28 21:30:40;;;;;;;7.80;6.47;;;16.90;50.90;;;;;;10453304;28;20197;-65
2021/11/28 21:36:05;;;;;;;7.27;5.87;;;16.90;50.80;;;;;;10453476;28;20705;-65
2021/11/28 21:41:28;;;;;;;5.57;5.07;;;16.90;50.70;;;;;;10450999;28;20287;-65
2021/11/28 21:46:50;;;;;;;5.70;4.67;;;16.90;50.80;;;;;;10431481;28;20220;-66
2021/11/28 21:52:13;;;;;;;5.70;4.83;;;16.90;50.90;;;;;;10454824;28;20595;-65
2021/11/28 21:57:36;;;;;;;4.40;3.93;;;16.90;51.10;;;;;;10453693;28;20288;-65
2021/11/28 22:03:00;;;;;;;4.47;4.07;;;16.80;51.20;;;;;;10452298;28;20220;-66
2021/11/28 22:08:24;;;;;;;3.70;3.30;;;16.80;51.40;;;;;;10449580;28;20221;-65
2021/11/28 22:13:46;;;;;;;4.10;3.50;;;16.80;51.60;;;;;;10446143;28;20296;-65
2021/11/28 22:19:08;;;;;;;3.37;3.07;;;16.70;51.50;;;;;;10453605;28;20594;-65
2021/11/28 22:24:32;;;;;;;3.00;2.60;;;16.70;51.50;;;;;;10452764;28;20675;-65
2021/11/28 22:29:55;;;;;;;3.17;2.83;;;16.70;51.50;;;;;;10452181;28;20204;-66
2021/11/28 22:35:17;;;;;;;3.33;2.40;;;16.70;51.40;;;;;;10452755;28;20212;-65
2021/11/28 22:40:43;;;;;;;2.60;2.40;;;16.70;51.40;;;;;;10453145;28;20201;-65
2021/11/28 22:46:06;;;;;;;2.63;2.40;;;16.70;51.50;;;;;;10436874;28;20217;-65
2021/11/28 22:51:28;;;;;;;2.87;2.20;;;16.70;51.30;;;;;;10451616;28;20197;-66
2021/11/28 22:56:52;;;;;;;2.77;2.27;;;16.70;51.10;;;;;;10452462;28;20205;-66
2021/11/28 23:02:14;;;;;;;2.23;2.03;;;16.80;51.00;;;;;;10445026;28;20215;-65
2021/11/28 23:07:36;;;;;;;3.10;2.17;;;16.80;51.00;;;;;;10381699;28;20731;-65
2021/11/28 23:13:00;;;;;;;2.20;2.00;;;16.80;51.10;;;;;;10376394;28;20590;-65
2021/11/28 23:18:23;;;;;;;2.43;1.80;;;16.70;51.20;;;;;;10410128;28;20222;-65
2021/11/28 23:23:46;;;;;;;2.00;1.83;;;16.70;51.10;;;;;;10409701;28;20591;-65
2021/11/28 23:29:12;;;;;;;3.40;1.80;;;16.70;51.20;;;;;;10410074;28;20222;-65
2021/11/28 23:34:34;;;;;;;1.93;1.73;;;16.70;51.30;;;;;;10404360;28;20659;-65
2021/11/28 23:39:56;;;;;;;1.87;1.73;;;16.70;51.40;;;;;;10409178;28;20197;-65
2021/11/28 23:45:20;;;;;;;1.33;1.23;;;16.70;51.40;;;;;;10390064;28;20639;-65
2021/11/28 23:50:42;;;;;;;1.50;1.40;;;16.60;51.20;;;;;;10369222;28;20696;-66
2021/11/28 23:56:05;;;;;;;1.23;1.13;;;16.70;51.20;;;;;;10369728;28;20572;-66
